Big Bear Station Historical Data
Daily Summary for July 11, 2017 Units:  English    Metric   Both
Next Day »
Daily Weekly Monthly Yearly Custom
  High: Low: Average:
Temperature: 83.3 °F 55.0 °F 67.1 °F
Dew Point: 55.9 °F 47.4 °F 51.9 °F
Humidity: 82% 38% 60%
Wind Speed: 7.8mph 0.0mph 2.5mph
Wind Gust: -999.0mph - -
Wind- - West
Pressure: 30.29 in 30.22 in -
Precipitation: 0.00 in    
Historical Graphs
 
 
Tabular Data for July 11, 2017
Time Temperature Dew Point Pressure Wind Wind Speed Wind Gust Humidity Rainfall Rate (Hourly)
00:11 61.3 °F 51.0 °F 30.26 in ESE 2.2 mph -999.0 mph 69% 0 in
00:26 61.0 °F 50.8 °F 30.26 in Calm   -999.0 mph 69% 0 in
00:42 60.4 °F 50.6 °F 30.26 in Calm   -999.0 mph 70% 0 in
00:57 59.7 °F 49.9 °F 30.25 in Calm   -999.0 mph 70% 0 in
01:12 59.0 °F 49.6 °F 30.25 in Calm   -999.0 mph 71% 0 in
01:27 58.6 °F 49.6 °F 30.25 in Calm   -999.0 mph 72% 0 in
01:42 59.0 °F 50.0 °F 30.25 in South 2.2 mph -999.0 mph 72% 0 in
01:58 59.0 °F 49.6 °F 30.24 in SSE 1.1 mph -999.0 mph 71% 0 in
02:13 58.1 °F 50.2 °F 30.24 in Calm   -999.0 mph 75% 0 in
02:28 57.7 °F 49.1 °F 30.24 in Calm   -999.0 mph 73% 0 in
02:43 56.7 °F 48.5 °F 30.24 in SSE 2.2 mph -999.0 mph 74% 0 in
02:58 56.1 °F 48.3 °F 30.24 in Calm   -999.0 mph 75% 0 in
03:14 55.8 °F 48.7 °F 30.24 in Calm   -999.0 mph 77% 0 in
03:29 55.6 °F 48.5 °F 30.23 in Calm   -999.0 mph 77% 0 in
03:44 55.4 °F 48.0 °F 30.23 in Calm   -999.0 mph 76% 0 in
03:59 55.8 °F 48.3 °F 30.23 in Calm   -999.0 mph 76% 0 in
04:15 55.6 °F 47.8 °F 30.23 in Calm   -999.0 mph 75% 0 in
04:30 55.0 °F 47.6 °F 30.23 in Calm   -999.0 mph 76% 0 in
04:45 55.2 °F 47.4 °F 30.23 in Calm   -999.0 mph 75% 0 in
05:00 55.8 °F 48.0 °F 30.23 in Calm   -999.0 mph 75% 0 in
05:15 55.4 °F 47.6 °F 30.23 in Calm   -999.0 mph 75% 0 in
05:31 55.0 °F 47.9 °F 30.23 in Calm   -999.0 mph 77% 0 in
05:46 56.3 °F 48.8 °F 30.24 in Calm   -999.0 mph 76% 0 in
06:01 56.7 °F 48.9 °F 30.24 in South 2.2 mph -999.0 mph 75% 0 in
06:16 55.8 °F 48.7 °F 30.24 in Calm   -999.0 mph 77% 0 in
06:31 55.2 °F 48.5 °F 30.25 in Calm   -999.0 mph 78% 0 in
06:47 55.0 °F 49.6 °F 30.25 in Calm   -999.0 mph 82% 0 in
07:02 55.4 °F 49.7 °F 30.25 in Calm   -999.0 mph 81% 0 in
07:17 57.2 °F 50.7 °F 30.24 in Calm   -999.0 mph 79% 0 in
07:32 58.8 °F 50.9 °F 30.25 in ENE 1.7 mph -999.0 mph 75% 0 in
07:47 60.6 °F 51.1 °F 30.25 in Calm   -999.0 mph 71% 0 in
08:03 62.2 °F 51.5 °F 30.25 in NW 3.7 mph -999.0 mph 68% 0 in
08:18 63.9 °F 51.9 °F 30.25 in NE 2.2 mph -999.0 mph 65% 0 in
08:33 64.9 °F 52.0 °F 30.25 in NW 4.2 mph -999.0 mph 63% 0 in
08:49 66.0 °F 52.2 °F 30.25 in NNW 2.2 mph -999.0 mph 61% 0 in
09:04 67.1 °F 52.3 °F 30.25 in NW 3.2 mph -999.0 mph 59% 0 in
09:20 68.0 °F 52.7 °F 30.25 in WNW 4.7 mph -999.0 mph 58% 0 in
09:35 68.9 °F 53.0 °F 30.25 in WNW 4.2 mph -999.0 mph 57% 0 in
09:50 70.3 °F 53.4 °F 30.25 in NW 4.7 mph -999.0 mph 55% 0 in
10:06 71.4 °F 52.3 °F 30.25 in NW 3.7 mph -999.0 mph 51% 0 in
10:21 72.1 °F 51.9 °F 30.25 in NNW 4.7 mph -999.0 mph 49% 0 in
10:37 73.2 °F 53.5 °F 30.25 in WNW 5.8 mph -999.0 mph 50% 0 in
10:52 73.2 °F 52.9 °F 30.26 in NNW 4.7 mph -999.0 mph 49% 0 in
11:07 73.6 °F 55.4 °F 30.26 in NW 3.7 mph -999.0 mph 53% 0 in
11:23 74.3 °F 55.0 °F 30.26 in WNW 5.8 mph -999.0 mph 51% 0 in
11:38 75.7 °F 53.5 °F 30.26 in NW 5.8 mph -999.0 mph 46% 0 in
11:53 77.2 °F 54.2 °F 30.26 in West 3.7 mph -999.0 mph 45% 0 in
12:08 77.5 °F 55.7 °F 30.27 in NNW 4.7 mph -999.0 mph 47% 0 in
12:24 78.8 °F 55.1 °F 30.26 in NW 4.7 mph -999.0 mph 44% 0 in
12:39 79.2 °F 55.4 °F 30.27 in East 4.7 mph -999.0 mph 44% 0 in
12:54 79.7 °F 55.2 °F 30.26 in NW 6.3 mph -999.0 mph 43% 0 in
13:10 80.4 °F 54.6 °F 30.26 in NNW 4.7 mph -999.0 mph 41% 0 in
13:25 80.4 °F 55.2 °F 30.26 in NW 4.7 mph -999.0 mph 42% 0 in
13:40 80.4 °F 55.9 °F 30.26 in NNW 3.7 mph -999.0 mph 43% 0 in
13:55 80.6 °F 54.7 °F 30.26 in West 5.3 mph -999.0 mph 41% 0 in
14:11 80.8 °F 54.9 °F 30.26 in WNW 4.7 mph -999.0 mph 41% 0 in
14:26 81.3 °F 54.7 °F 30.25 in SW 3.7 mph -999.0 mph 40% 0 in
14:41 81.0 °F 54.4 °F 30.25 in NW 4.7 mph -999.0 mph 40% 0 in
14:57 81.3 °F 54.0 °F 30.25 in NNW 6.3 mph -999.0 mph 39% 0 in
15:12 80.6 °F 52.7 °F 30.25 in West 7.3 mph -999.0 mph 38% 0 in
15:27 81.0 °F 53.7 °F 30.24 in North 7.8 mph -999.0 mph 39% 0 in
15:43 79.7 °F 53.3 °F 30.24 in NNW 3.2 mph -999.0 mph 40% 0 in
15:58 80.2 °F 54.4 °F 30.24 in NW 6.3 mph -999.0 mph 41% 0 in
16:13 79.2 °F 53.5 °F 30.24 in WNW 6.8 mph -999.0 mph 41% 0 in
16:28 78.8 °F 54.4 °F 30.23 in NNW 3.2 mph -999.0 mph 43% 0 in
16:44 79.5 °F 52.4 °F 30.23 in ENE 2.7 mph -999.0 mph 39% 0 in
16:59 82.0 °F 54.6 °F 30.23 in WNW 3.7 mph -999.0 mph 39% 0 in
17:14 81.9 °F 53.8 °F 30.23 in NNW 4.7 mph -999.0 mph 38% 0 in
17:29 83.3 °F 55.8 °F 30.23 in NW 4.7 mph -999.0 mph 39% 0 in
17:45 80.2 °F 55.0 °F 30.22 in West 4.7 mph -999.0 mph 42% 0 in
18:00 79.3 °F 54.9 °F 30.22 in WNW 4.2 mph -999.0 mph 43% 0 in
18:15 77.0 °F 55.2 °F 30.22 in West 3.2 mph -999.0 mph 47% 0 in
18:31 76.8 °F 55.6 °F 30.22 in NW 2.7 mph -999.0 mph 48% 0 in
18:46 75.2 °F 55.3 °F 30.22 in North 3.2 mph -999.0 mph 50% 0 in
19:01 74.8 °F 54.9 °F 30.23 in NNE 3.2 mph -999.0 mph 50% 0 in
19:16 72.0 °F 53.9 °F 30.23 in WNW 2.7 mph -999.0 mph 53% 0 in
19:31 68.9 °F 53.0 °F 30.23 in Calm   -999.0 mph 57% 0 in
19:47 65.3 °F 53.2 °F 30.23 in North 4.7 mph -999.0 mph 65% 0 in
20:02 64.2 °F 53.0 °F 30.25 in NW 2.2 mph -999.0 mph 67% 0 in
20:17 63.3 °F 53.0 °F 30.25 in NNW 1.1 mph -999.0 mph 69% 0 in
20:33 62.6 °F 52.3 °F 30.25 in NW 3.2 mph -999.0 mph 69% 0 in
20:48 62.2 °F 52.3 °F 30.25 in SE 1.1 mph -999.0 mph 70% 0 in
21:04 61.9 °F 52.0 °F 30.26 in WNW 2.7 mph -999.0 mph 70% 0 in
21:19 61.7 °F 51.4 °F 30.27 in West 3.2 mph -999.0 mph 69% 0 in
21:34 61.5 °F 51.6 °F 30.27 in NNW 3.7 mph -999.0 mph 70% 0 in
21:49 61.5 °F 51.6 °F 30.27 in ESE 2.2 mph -999.0 mph 70% 0 in
22:05 61.0 °F 51.1 °F 30.28 in Calm   -999.0 mph 70% 0 in
22:20 60.4 °F 51.0 °F 30.28 in Calm   -999.0 mph 71% 0 in
22:35 60.1 °F 50.7 °F 30.28 in Calm   -999.0 mph 71% 0 in
22:51 59.4 °F 49.6 °F 30.28 in Calm   -999.0 mph 70% 0 in
23:06 59.0 °F 49.2 °F 30.28 in Calm   -999.0 mph 70% 0 in
23:21 58.6 °F 48.8 °F 30.29 in Calm   -999.0 mph 70% 0 in
23:36 58.5 °F 48.8 °F 30.28 in South 2.2 mph -999.0 mph 70% 0 in
23:51 57.7 °F 48.0 °F 30.28 in Calm   -999.0 mph 70% 0 in
Big Bear CA Weather